sensor_id;sensor_type;location;lat;lon;timestamp;P1;durP1;ratioP1;P2;durP2;ratioP2
18520;SDS011;9390;51.244;6.982;2023-07-02T00:01:13;9.25;;;3.55;;
18520;SDS011;9390;51.244;6.982;2023-07-02T00:03:44;10.90;;;3.75;;
18520;SDS011;9390;51.244;6.982;2023-07-02T00:06:16;12.18;;;3.63;;
18520;SDS011;9390;51.244;6.982;2023-07-02T00:08:49;13.63;;;4.20;;
18520;SDS011;9390;51.244;6.982;2023-07-02T00:11:21;7.90;;;3.22;;
18520;SDS011;9390;51.244;6.982;2023-07-02T00:13:52;7.82;;;3.60;;
18520;SDS011;9390;51.244;6.982;2023-07-02T00:16:23;10.90;;;3.67;;
18520;SDS011;9390;51.244;6.982;2023-07-02T00:18:55;9.90;;;3.90;;
18520;SDS011;9390;51.244;6.982;2023-07-02T00:21:27;10.55;;;3.50;;
18520;SDS011;9390;51.244;6.982;2023-07-02T00:24:00;13.40;;;4.07;;
18520;SDS011;9390;51.244;6.982;2023-07-02T00:26:31;10.40;;;4.05;;
18520;SDS011;9390;51.244;6.982;2023-07-02T00:29:03;21.80;;;4.25;;
18520;SDS011;9390;51.244;6.982;2023-07-02T00:31:36;9.75;;;3.42;;
18520;SDS011;9390;51.244;6.982;2023-07-02T00:34:07;12.95;;;4.38;;
18520;SDS011;9390;51.244;6.982;2023-07-02T00:36:39;8.77;;;3.65;;
18520;SDS011;9390;51.244;6.982;2023-07-02T00:39:13;7.50;;;3.53;;
18520;SDS011;9390;51.244;6.982;2023-07-02T00:41:46;13.02;;;4.30;;
18520;SDS011;9390;51.244;6.982;2023-07-02T00:44:17;10.05;;;3.30;;
18520;SDS011;9390;51.244;6.982;2023-07-02T00:46:49;13.70;;;4.28;;
18520;SDS011;9390;51.244;6.982;2023-07-02T00:49:20;9.30;;;3.42;;
18520;SDS011;9390;51.244;6.982;2023-07-02T00:51:52;14.25;;;3.88;;
18520;SDS011;9390;51.244;6.982;2023-07-02T00:54:25;10.02;;;3.78;;
18520;SDS011;9390;51.244;6.982;2023-07-02T00:56:58;12.75;;;4.50;;
18520;SDS011;9390;51.244;6.982;2023-07-02T00:59:32;8.25;;;3.22;;
18520;SDS011;9390;51.244;6.982;2023-07-02T01:02:05;12.55;;;4.55;;
18520;SDS011;9390;51.244;6.982;2023-07-02T01:04:37;14.43;;;4.10;;
18520;SDS011;9390;51.244;6.982;2023-07-02T01:07:08;10.85;;;4.45;;
18520;SDS011;9390;51.244;6.982;2023-07-02T01:09:42;12.32;;;4.00;;
18520;SDS011;9390;51.244;6.982;2023-07-02T01:12:14;15.32;;;4.72;;
18520;SDS011;9390;51.244;6.982;2023-07-02T01:14:48;13.40;;;4.47;;
18520;SDS011;9390;51.244;6.982;2023-07-02T01:17:21;13.55;;;4.32;;
18520;SDS011;9390;51.244;6.982;2023-07-02T01:19:55;14.60;;;4.57;;
18520;SDS011;9390;51.244;6.982;2023-07-02T01:22:29;10.13;;;4.25;;
18520;SDS011;9390;51.244;6.982;2023-07-02T01:25:02;10.10;;;4.05;;
18520;SDS011;9390;51.244;6.982;2023-07-02T01:27:34;14.25;;;4.85;;
18520;SDS011;9390;51.244;6.982;2023-07-02T01:30:07;17.63;;;5.40;;
18520;SDS011;9390;51.244;6.982;2023-07-02T01:32:40;15.73;;;5.55;;
18520;SDS011;9390;51.244;6.982;2023-07-02T01:35:13;19.55;;;5.47;;
18520;SDS011;9390;51.244;6.982;2023-07-02T01:37:46;18.27;;;5.68;;
18520;SDS011;9390;51.244;6.982;2023-07-02T01:40:18;15.87;;;6.17;;
18520;SDS011;9390;51.244;6.982;2023-07-02T01:42:49;20.17;;;6.60;;
18520;SDS011;9390;51.244;6.982;2023-07-02T01:45:21;21.13;;;5.70;;
18520;SDS011;9390;51.244;6.982;2023-07-02T01:47:52;17.10;;;6.32;;
18520;SDS011;9390;51.244;6.982;2023-07-02T01:50:25;18.00;;;6.38;;
18520;SDS011;9390;51.244;6.982;2023-07-02T01:52:57;20.17;;;6.80;;
18520;SDS011;9390;51.244;6.982;2023-07-02T01:55:28;15.40;;;5.72;;
18520;SDS011;9390;51.244;6.982;2023-07-02T01:57:59;18.42;;;5.72;;
18520;SDS011;9390;51.244;6.982;2023-07-02T02:00:31;16.42;;;6.63;;
18520;SDS011;9390;51.244;6.982;2023-07-02T02:03:04;19.90;;;6.63;;
18520;SDS011;9390;51.244;6.982;2023-07-02T02:05:36;17.95;;;6.40;;
18520;SDS011;9390;51.244;6.982;2023-07-02T02:08:08;18.73;;;6.93;;
18520;SDS011;9390;51.244;6.982;2023-07-02T02:10:40;18.33;;;6.90;;
18520;SDS011;9390;51.244;6.982;2023-07-02T02:13:11;19.85;;;6.93;;
18520;SDS011;9390;51.244;6.982;2023-07-02T02:15:43;24.70;;;8.27;;
18520;SDS011;9390;51.244;6.982;2023-07-02T02:18:14;20.75;;;7.10;;
18520;SDS011;9390;51.244;6.982;2023-07-02T02:20:47;23.30;;;7.65;;
18520;SDS011;9390;51.244;6.982;2023-07-02T02:23:19;27.83;;;7.53;;
18520;SDS011;9390;51.244;6.982;2023-07-02T02:25:51;18.17;;;7.80;;
18520;SDS011;9390;51.244;6.982;2023-07-02T02:28:22;18.65;;;7.38;;
18520;SDS011;9390;51.244;6.982;2023-07-02T02:30:53;27.40;;;7.93;;
18520;SDS011;9390;51.244;6.982;2023-07-02T02:33:25;25.02;;;8.48;;
18520;SDS011;9390;51.244;6.982;2023-07-02T02:35:58;24.55;;;8.38;;
18520;SDS011;9390;51.244;6.982;2023-07-02T02:38:29;19.88;;;7.47;;
18520;SDS011;9390;51.244;6.982;2023-07-02T02:41:01;22.67;;;8.60;;
18520;SDS011;9390;51.244;6.982;2023-07-02T02:43:32;20.85;;;8.95;;
18520;SDS011;9390;51.244;6.982;2023-07-02T02:46:04;20.88;;;7.72;;
18520;SDS011;9390;51.244;6.982;2023-07-02T02:48:35;21.73;;;7.97;;
18520;SDS011;9390;51.244;6.982;2023-07-02T02:51:08;25.20;;;9.32;;
18520;SDS011;9390;51.244;6.982;2023-07-02T02:53:40;28.88;;;9.23;;
18520;SDS011;9390;51.244;6.982;2023-07-02T02:56:11;21.38;;;8.75;;
18520;SDS011;9390;51.244;6.982;2023-07-02T02:58:43;19.83;;;8.50;;
18520;SDS011;9390;51.244;6.982;2023-07-02T03:01:15;19.83;;;8.75;;
18520;SDS011;9390;51.244;6.982;2023-07-02T03:03:47;24.67;;;9.60;;
18520;SDS011;9390;51.244;6.982;2023-07-02T03:06:20;23.58;;;9.35;;
18520;SDS011;9390;51.244;6.982;2023-07-02T03:08:51;25.02;;;9.88;;
18520;SDS011;9390;51.244;6.982;2023-07-02T03:11:22;26.08;;;10.35;;
18520;SDS011;9390;51.244;6.982;2023-07-02T03:13:55;25.08;;;9.85;;
18520;SDS011;9390;51.244;6.982;2023-07-02T03:16:26;26.80;;;9.73;;
18520;SDS011;9390;51.244;6.982;2023-07-02T03:18:57;32.50;;;9.85;;
18520;SDS011;9390;51.244;6.982;2023-07-02T03:21:30;24.77;;;10.43;;
18520;SDS011;9390;51.244;6.982;2023-07-02T03:24:02;24.90;;;10.57;;
18520;SDS011;9390;51.244;6.982;2023-07-02T03:26:33;28.67;;;9.90;;
18520;SDS011;9390;51.244;6.982;2023-07-02T03:29:05;34.20;;;10.32;;
18520;SDS011;9390;51.244;6.982;2023-07-02T03:31:37;26.37;;;11.00;;
18520;SDS011;9390;51.244;6.982;2023-07-02T03:34:09;21.85;;;10.40;;
18520;SDS011;9390;51.244;6.982;2023-07-02T03:36:42;28.73;;;11.32;;
18520;SDS011;9390;51.244;6.982;2023-07-02T03:39:14;27.05;;;10.93;;
18520;SDS011;9390;51.244;6.982;2023-07-02T03:41:47;37.78;;;13.52;;
18520;SDS011;9390;51.244;6.982;2023-07-02T03:44:18;25.80;;;10.70;;
18520;SDS011;9390;51.244;6.982;2023-07-02T03:46:50;32.50;;;12.95;;
18520;SDS011;9390;51.244;6.982;2023-07-02T03:49:21;37.20;;;11.90;;
18520;SDS011;9390;51.244;6.982;2023-07-02T03:51:54;32.63;;;11.07;;
18520;SDS011;9390;51.244;6.982;2023-07-02T03:54:26;32.70;;;11.13;;
18520;SDS011;9390;51.244;6.982;2023-07-02T03:56:57;28.42;;;11.80;;
18520;SDS011;9390;51.244;6.982;2023-07-02T03:59:28;36.15;;;11.55;;
18520;SDS011;9390;51.244;6.982;2023-07-02T04:02:00;30.45;;;12.35;;
18520;SDS011;9390;51.244;6.982;2023-07-02T04:04:31;30.45;;;11.40;;
18520;SDS011;9390;51.244;6.982;2023-07-02T04:07:04;28.17;;;11.65;;
18520;SDS011;9390;51.244;6.982;2023-07-02T04:09:36;31.02;;;11.23;;
18520;SDS011;9390;51.244;6.982;2023-07-02T04:12:07;36.45;;;13.00;;
18520;SDS011;9390;51.244;6.982;2023-07-02T04:14:39;29.70;;;12.63;;
18520;SDS011;9390;51.244;6.982;2023-07-02T04:17:11;31.13;;;12.77;;
18520;SDS011;9390;51.244;6.982;2023-07-02T04:19:42;33.65;;;12.30;;
18520;SDS011;9390;51.244;6.982;2023-07-02T04:22:15;32.90;;;12.60;;
18520;SDS011;9390;51.244;6.982;2023-07-02T04:24:48;36.55;;;12.50;;
18520;SDS011;9390;51.244;6.982;2023-07-02T04:27:19;35.40;;;12.40;;
18520;SDS011;9390;51.244;6.982;2023-07-02T04:29:50;35.30;;;13.30;;
18520;SDS011;9390;51.244;6.982;2023-07-02T04:32:24;31.90;;;12.48;;
18520;SDS011;9390;51.244;6.982;2023-07-02T04:34:56;31.10;;;12.27;;
18520;SDS011;9390;51.244;6.982;2023-07-02T04:37:29;31.75;;;13.80;;
18520;SDS011;9390;51.244;6.982;2023-07-02T04:40:01;34.38;;;13.13;;
18520;SDS011;9390;51.244;6.982;2023-07-02T04:42:33;31.23;;;13.27;;
18520;SDS011;9390;51.244;6.982;2023-07-02T04:45:07;31.67;;;13.40;;
18520;SDS011;9390;51.244;6.982;2023-07-02T04:47:39;29.25;;;13.07;;
18520;SDS011;9390;51.244;6.982;2023-07-02T04:50:10;36.92;;;12.95;;
18520;SDS011;9390;51.244;6.982;2023-07-02T04:52:43;34.33;;;13.25;;
18520;SDS011;9390;51.244;6.982;2023-07-02T04:55:15;32.88;;;13.73;;
18520;SDS011;9390;51.244;6.982;2023-07-02T04:57:46;32.05;;;12.77;;
18520;SDS011;9390;51.244;6.982;2023-07-02T05:00:18;30.65;;;13.50;;
18520;SDS011;9390;51.244;6.982;2023-07-02T05:02:49;31.75;;;13.15;;
18520;SDS011;9390;51.244;6.982;2023-07-02T05:05:21;35.00;;;14.25;;
18520;SDS011;9390;51.244;6.982;2023-07-02T05:07:54;37.42;;;13.98;;
18520;SDS011;9390;51.244;6.982;2023-07-02T05:10:25;37.35;;;14.25;;
18520;SDS011;9390;51.244;6.982;2023-07-02T05:12:57;28.88;;;13.55;;
18520;SDS011;9390;51.244;6.982;2023-07-02T05:15:28;32.22;;;14.38;;
18520;SDS011;9390;51.244;6.982;2023-07-02T05:18:00;34.08;;;14.07;;
18520;SDS011;9390;51.244;6.982;2023-07-02T05:20:31;35.83;;;14.13;;
18520;SDS011;9390;51.244;6.982;2023-07-02T05:23:04;36.70;;;15.13;;
18520;SDS011;9390;51.244;6.982;2023-07-02T05:25:35;33.80;;;14.13;;
18520;SDS011;9390;51.244;6.982;2023-07-02T05:28:06;39.53;;;15.13;;
18520;SDS011;9390;51.244;6.982;2023-07-02T05:30:38;33.85;;;14.35;;
18520;SDS011;9390;51.244;6.982;2023-07-02T05:33:09;34.42;;;15.40;;
18520;SDS011;9390;51.244;6.982;2023-07-02T05:35:41;35.13;;;14.18;;
18520;SDS011;9390;51.244;6.982;2023-07-02T05:38:13;36.15;;;14.45;;
18520;SDS011;9390;51.244;6.982;2023-07-02T05:40:45;42.28;;;15.60;;
18520;SDS011;9390;51.244;6.982;2023-07-02T05:43:17;39.10;;;15.07;;
18520;SDS011;9390;51.244;6.982;2023-07-02T05:45:49;37.63;;;14.85;;
18520;SDS011;9390;51.244;6.982;2023-07-02T05:48:21;40.38;;;14.38;;
18520;SDS011;9390;51.244;6.982;2023-07-02T05:50:53;42.13;;;14.82;;
18520;SDS011;9390;51.244;6.982;2023-07-02T05:53:25;41.00;;;15.80;;
18520;SDS011;9390;51.244;6.982;2023-07-02T05:55:57;39.92;;;14.75;;
18520;SDS011;9390;51.244;6.982;2023-07-02T05:58:28;41.50;;;14.43;;
18520;SDS011;9390;51.244;6.982;2023-07-02T06:01:00;41.60;;;15.70;;
18520;SDS011;9390;51.244;6.982;2023-07-02T06:03:31;41.78;;;15.32;;
18520;SDS011;9390;51.244;6.982;2023-07-02T06:06:03;35.38;;;14.68;;
18520;SDS011;9390;51.244;6.982;2023-07-02T06:08:35;36.75;;;15.23;;
18520;SDS011;9390;51.244;6.982;2023-07-02T06:11:09;37.50;;;14.82;;
18520;SDS011;9390;51.244;6.982;2023-07-02T06:13:41;36.80;;;15.27;;
18520;SDS011;9390;51.244;6.982;2023-07-02T06:16:12;34.88;;;13.93;;
18520;SDS011;9390;51.244;6.982;2023-07-02T06:18:43;39.67;;;15.70;;
18520;SDS011;9390;51.244;6.982;2023-07-02T06:21:15;36.95;;;14.82;;
18520;SDS011;9390;51.244;6.982;2023-07-02T06:23:47;36.42;;;14.45;;
18520;SDS011;9390;51.244;6.982;2023-07-02T06:26:19;36.38;;;14.75;;
18520;SDS011;9390;51.244;6.982;2023-07-02T06:28:51;35.58;;;15.52;;
18520;SDS011;9390;51.244;6.982;2023-07-02T06:31:22;33.50;;;14.13;;
18520;SDS011;9390;51.244;6.982;2023-07-02T06:33:53;36.83;;;13.57;;
18520;SDS011;9390;51.244;6.982;2023-07-02T06:36:25;38.22;;;14.60;;
18520;SDS011;9390;51.244;6.982;2023-07-02T06:38:58;33.67;;;13.88;;
18520;SDS011;9390;51.244;6.982;2023-07-02T06:41:29;33.95;;;13.43;;
18520;SDS011;9390;51.244;6.982;2023-07-02T06:44:00;34.30;;;13.18;;
18520;SDS011;9390;51.244;6.982;2023-07-02T06:46:32;33.67;;;14.13;;
18520;SDS011;9390;51.244;6.982;2023-07-02T06:49:03;36.95;;;12.55;;
18520;SDS011;9390;51.244;6.982;2023-07-02T06:51:35;36.05;;;13.35;;
18520;SDS011;9390;51.244;6.982;2023-07-02T06:54:07;31.48;;;12.65;;
18520;SDS011;9390;51.244;6.982;2023-07-02T06:56:39;35.05;;;14.30;;
18520;SDS011;9390;51.244;6.982;2023-07-02T06:59:10;36.45;;;13.85;;
18520;SDS011;9390;51.244;6.982;2023-07-02T07:01:41;31.90;;;13.05;;
18520;SDS011;9390;51.244;6.982;2023-07-02T07:04:13;36.22;;;13.52;;
18520;SDS011;9390;51.244;6.982;2023-07-02T07:06:44;28.08;;;12.23;;
18520;SDS011;9390;51.244;6.982;2023-07-02T07:09:17;31.77;;;12.43;;
18520;SDS011;9390;51.244;6.982;2023-07-02T07:11:49;30.77;;;12.73;;
18520;SDS011;9390;51.244;6.982;2023-07-02T07:14:20;31.92;;;12.52;;
18520;SDS011;9390;51.244;6.982;2023-07-02T07:16:51;28.98;;;13.02;;
18520;SDS011;9390;51.244;6.982;2023-07-02T07:19:23;30.23;;;12.25;;
18520;SDS011;9390;51.244;6.982;2023-07-02T07:21:54;30.40;;;13.18;;
18520;SDS011;9390;51.244;6.982;2023-07-02T07:24:27;33.17;;;12.32;;
18520;SDS011;9390;51.244;6.982;2023-07-02T07:26:58;34.33;;;12.50;;
18520;SDS011;9390;51.244;6.982;2023-07-02T07:29:29;31.90;;;12.98;;
18520;SDS011;9390;51.244;6.982;2023-07-02T07:32:01;32.63;;;12.02;;
18520;SDS011;9390;51.244;6.982;2023-07-02T07:34:32;33.83;;;12.73;;
18520;SDS011;9390;51.244;6.982;2023-07-02T07:37:04;30.05;;;10.98;;
18520;SDS011;9390;51.244;6.982;2023-07-02T07:39:37;28.25;;;11.27;;
18520;SDS011;9390;51.244;6.982;2023-07-02T07:42:08;24.42;;;10.77;;
18520;SDS011;9390;51.244;6.982;2023-07-02T07:44:40;29.77;;;11.73;;
18520;SDS011;9390;51.244;6.982;2023-07-02T07:47:11;28.27;;;10.90;;
18520;SDS011;9390;51.244;6.982;2023-07-02T07:49:42;28.70;;;11.57;;
18520;SDS011;9390;51.244;6.982;2023-07-02T07:52:14;31.55;;;10.90;;
18520;SDS011;9390;51.244;6.982;2023-07-02T07:54:46;26.60;;;9.68;;
18520;SDS011;9390;51.244;6.982;2023-07-02T07:57:18;26.48;;;9.68;;
18520;SDS011;9390;51.244;6.982;2023-07-02T07:59:49;25.63;;;9.63;;
18520;SDS011;9390;51.244;6.982;2023-07-02T08:02:21;29.58;;;11.10;;
18520;SDS011;9390;51.244;6.982;2023-07-02T08:04:53;26.77;;;9.40;;
18520;SDS011;9390;51.244;6.982;2023-07-02T08:07:24;21.77;;;9.27;;
18520;SDS011;9390;51.244;6.982;2023-07-02T08:09:57;28.65;;;9.90;;
18520;SDS011;9390;51.244;6.982;2023-07-02T08:12:28;26.20;;;10.82;;
18520;SDS011;9390;51.244;6.982;2023-07-02T08:14:59;29.27;;;11.77;;
18520;SDS011;9390;51.244;6.982;2023-07-02T08:17:31;26.98;;;11.07;;
18520;SDS011;9390;51.244;6.982;2023-07-02T08:20:03;23.30;;;10.77;;
18520;SDS011;9390;51.244;6.982;2023-07-02T08:22:39;28.85;;;10.75;;
18520;SDS011;9390;51.244;6.982;2023-07-02T08:25:12;30.90;;;12.48;;
18520;SDS011;9390;51.244;6.982;2023-07-02T08:27:43;26.83;;;11.18;;
18520;SDS011;9390;51.244;6.982;2023-07-02T08:30:15;32.75;;;11.88;;
18520;SDS011;9390;51.244;6.982;2023-07-02T08:32:46;24.73;;;10.52;;
18520;SDS011;9390;51.244;6.982;2023-07-02T08:35:18;31.27;;;11.73;;
18520;SDS011;9390;51.244;6.982;2023-07-02T08:37:49;32.75;;;12.45;;
18520;SDS011;9390;51.244;6.982;2023-07-02T08:40:22;26.70;;;10.90;;
18520;SDS011;9390;51.244;6.982;2023-07-02T08:42:54;26.15;;;11.10;;
18520;SDS011;9390;51.244;6.982;2023-07-02T08:45:26;33.13;;;11.60;;
18520;SDS011;9390;51.244;6.982;2023-07-02T08:47:57;29.42;;;11.95;;
18520;SDS011;9390;51.244;6.982;2023-07-02T08:50:29;30.27;;;11.38;;
18520;SDS011;9390;51.244;6.982;2023-07-02T08:53:00;27.52;;;11.30;;
18520;SDS011;9390;51.244;6.982;2023-07-02T08:55:33;36.47;;;11.82;;
18520;SDS011;9390;51.244;6.982;2023-07-02T08:58:04;31.13;;;11.60;;
18520;SDS011;9390;51.244;6.982;2023-07-02T09:00:36;34.10;;;11.60;;
18520;SDS011;9390;51.244;6.982;2023-07-02T09:03:12;31.33;;;11.88;;
18520;SDS011;9390;51.244;6.982;2023-07-02T09:05:48;30.58;;;11.75;;
18520;SDS011;9390;51.244;6.982;2023-07-02T09:08:23;32.00;;;11.70;;
18520;SDS011;9390;51.244;6.982;2023-07-02T09:11:05;28.75;;;12.18;;
18520;SDS011;9390;51.244;6.982;2023-07-02T09:13:44;27.58;;;11.43;;
18520;SDS011;9390;51.244;6.982;2023-07-02T09:16:22;30.25;;;10.23;;
18520;SDS011;9390;51.244;6.982;2023-07-02T09:18:56;28.42;;;11.02;;
18520;SDS011;9390;51.244;6.982;2023-07-02T09:21:41;28.98;;;12.43;;
18520;SDS011;9390;51.244;6.982;2023-07-02T09:24:14;32.03;;;11.20;;
18520;SDS011;9390;51.244;6.982;2023-07-02T09:26:47;33.15;;;11.18;;
18520;SDS011;9390;51.244;6.982;2023-07-02T09:29:21;23.10;;;10.27;;
18520;SDS011;9390;51.244;6.982;2023-07-02T09:31:54;25.25;;;11.13;;
18520;SDS011;9390;51.244;6.982;2023-07-02T09:34:27;29.35;;;11.52;;
18520;SDS011;9390;51.244;6.982;2023-07-02T09:37:00;24.52;;;11.27;;
18520;SDS011;9390;51.244;6.982;2023-07-02T09:39:33;30.08;;;11.38;;
18520;SDS011;9390;51.244;6.982;2023-07-02T09:44:39;27.67;;;12.00;;
18520;SDS011;9390;51.244;6.982;2023-07-02T09:47:13;34.60;;;13.20;;
18520;SDS011;9390;51.244;6.982;2023-07-02T09:49:48;38.22;;;13.80;;
18520;SDS011;9390;51.244;6.982;2023-07-02T09:52:21;31.85;;;12.23;;
18520;SDS011;9390;51.244;6.982;2023-07-02T09:54:52;35.67;;;13.60;;
18520;SDS011;9390;51.244;6.982;2023-07-02T09:57:25;30.58;;;13.45;;
18520;SDS011;9390;51.244;6.982;2023-07-02T09:59:59;41.75;;;12.68;;
18520;SDS011;9390;51.244;6.982;2023-07-02T10:02:31;35.35;;;13.55;;
18520;SDS011;9390;51.244;6.982;2023-07-02T10:05:02;36.25;;;13.65;;
18520;SDS011;9390;51.244;6.982;2023-07-02T10:07:34;38.95;;;13.35;;
18520;SDS011;9390;51.244;6.982;2023-07-02T10:10:06;33.17;;;12.65;;
18520;SDS011;9390;51.244;6.982;2023-07-02T10:12:45;31.73;;;13.52;;
18520;SDS011;9390;51.244;6.982;2023-07-02T10:15:24;35.97;;;13.65;;
18520;SDS011;9390;51.244;6.982;2023-07-02T10:17:56;40.35;;;14.45;;
18520;SDS011;9390;51.244;6.982;2023-07-02T10:20:31;31.77;;;13.33;;
18520;SDS011;9390;51.244;6.982;2023-07-02T10:23:04;36.42;;;14.15;;
18520;SDS011;9390;51.244;6.982;2023-07-02T10:25:36;39.75;;;13.63;;
18520;SDS011;9390;51.244;6.982;2023-07-02T10:28:16;35.70;;;14.63;;
18520;SDS011;9390;51.244;6.982;2023-07-02T10:30:51;34.13;;;13.45;;
18520;SDS011;9390;51.244;6.982;2023-07-02T10:33:25;37.58;;;15.27;;
18520;SDS011;9390;51.244;6.982;2023-07-02T10:38:29;34.30;;;12.40;;
18520;SDS011;9390;51.244;6.982;2023-07-02T10:41:00;27.25;;;11.40;;
18520;SDS011;9390;51.244;6.982;2023-07-02T10:43:33;28.90;;;10.65;;
18520;SDS011;9390;51.244;6.982;2023-07-02T10:46:05;24.98;;;10.77;;
18520;SDS011;9390;51.244;6.982;2023-07-02T10:48:36;26.13;;;10.05;;
18520;SDS011;9390;51.244;6.982;2023-07-02T10:51:11;28.60;;;10.30;;
18520;SDS011;9390;51.244;6.982;2023-07-02T10:53:42;25.92;;;10.27;;
18520;SDS011;9390;51.244;6.982;2023-07-02T10:56:17;23.40;;;9.25;;
18520;SDS011;9390;51.244;6.982;2023-07-02T10:58:49;23.55;;;9.38;;
18520;SDS011;9390;51.244;6.982;2023-07-02T11:01:22;21.65;;;7.95;;
18520;SDS011;9390;51.244;6.982;2023-07-02T11:03:58;21.85;;;9.15;;
18520;SDS011;9390;51.244;6.982;2023-07-02T11:06:31;19.55;;;8.05;;
18520;SDS011;9390;51.244;6.982;2023-07-02T11:09:03;23.38;;;7.68;;
18520;SDS011;9390;51.244;6.982;2023-07-02T11:11:34;21.55;;;8.15;;
18520;SDS011;9390;51.244;6.982;2023-07-02T11:14:07;21.55;;;7.53;;
18520;SDS011;9390;51.244;6.982;2023-07-02T11:16:39;20.73;;;7.72;;
18520;SDS011;9390;51.244;6.982;2023-07-02T11:19:10;21.35;;;8.00;;
18520;SDS011;9390;51.244;6.982;2023-07-02T11:21:50;19.65;;;7.28;;
18520;SDS011;9390;51.244;6.982;2023-07-02T11:24:30;17.90;;;7.40;;
18520;SDS011;9390;51.244;6.982;2023-07-02T11:27:03;20.85;;;8.02;;
18520;SDS011;9390;51.244;6.982;2023-07-02T11:29:40;18.60;;;7.10;;
18520;SDS011;9390;51.244;6.982;2023-07-02T11:32:12;23.85;;;7.45;;
18520;SDS011;9390;51.244;6.982;2023-07-02T11:34:52;24.20;;;7.25;;
18520;SDS011;9390;51.244;6.982;2023-07-02T11:37:25;18.80;;;7.68;;
18520;SDS011;9390;51.244;6.982;2023-07-02T11:39:58;19.67;;;7.55;;
18520;SDS011;9390;51.244;6.982;2023-07-02T11:42:29;20.67;;;7.57;;
18520;SDS011;9390;51.244;6.982;2023-07-02T11:45:02;22.90;;;7.75;;
18520;SDS011;9390;51.244;6.982;2023-07-02T11:47:34;17.48;;;7.40;;
18520;SDS011;9390;51.244;6.982;2023-07-02T11:50:06;22.08;;;6.43;;
18520;SDS011;9390;51.244;6.982;2023-07-02T11:52:38;20.65;;;7.00;;
18520;SDS011;9390;51.244;6.982;2023-07-02T11:55:10;17.75;;;6.78;;
18520;SDS011;9390;51.244;6.982;2023-07-02T11:57:41;17.15;;;6.43;;
18520;SDS011;9390;51.244;6.982;2023-07-02T12:00:14;13.10;;;5.03;;
18520;SDS011;9390;51.244;6.982;2023-07-02T12:02:46;18.65;;;6.38;;
18520;SDS011;9390;51.244;6.982;2023-07-02T12:05:17;23.58;;;7.10;;
18520;SDS011;9390;51.244;6.982;2023-07-02T12:07:48;18.23;;;6.32;;
18520;SDS011;9390;51.244;6.982;2023-07-02T12:10:21;15.48;;;6.30;;
18520;SDS011;9390;51.244;6.982;2023-07-02T12:12:52;20.13;;;6.50;;
18520;SDS011;9390;51.244;6.982;2023-07-02T12:15:25;21.55;;;6.60;;
18520;SDS011;9390;51.244;6.982;2023-07-02T12:17:56;22.17;;;6.95;;
18520;SDS011;9390;51.244;6.982;2023-07-02T12:20:28;19.20;;;7.22;;
18520;SDS011;9390;51.244;6.982;2023-07-02T12:22:59;20.60;;;7.20;;
18520;SDS011;9390;51.244;6.982;2023-07-02T12:25:31;17.90;;;7.10;;
18520;SDS011;9390;51.244;6.982;2023-07-02T12:28:02;20.63;;;7.30;;
18520;SDS011;9390;51.244;6.982;2023-07-02T12:30:35;22.90;;;7.30;;
18520;SDS011;9390;51.244;6.982;2023-07-02T12:33:07;22.15;;;7.85;;
18520;SDS011;9390;51.244;6.982;2023-07-02T12:35:38;23.23;;;8.63;;
18520;SDS011;9390;51.244;6.982;2023-07-02T12:38:09;20.02;;;7.35;;
18520;SDS011;9390;51.244;6.982;2023-07-02T12:40:41;21.45;;;7.00;;
18520;SDS011;9390;51.244;6.982;2023-07-02T12:43:12;22.80;;;6.80;;
18520;SDS011;9390;51.244;6.982;2023-07-02T12:45:45;17.73;;;6.72;;
18520;SDS011;9390;51.244;6.982;2023-07-02T12:50:54;17.02;;;7.18;;
18520;SDS011;9390;51.244;6.982;2023-07-02T12:53:26;15.70;;;6.32;;
18520;SDS011;9390;51.244;6.982;2023-07-02T12:55:58;16.83;;;6.63;;
18520;SDS011;9390;51.244;6.982;2023-07-02T12:58:29;19.17;;;7.07;;
18520;SDS011;9390;51.244;6.982;2023-07-02T13:01:02;13.23;;;6.03;;
18520;SDS011;9390;51.244;6.982;2023-07-02T13:03:34;18.00;;;6.30;;
18520;SDS011;9390;51.244;6.982;2023-07-02T13:06:05;17.30;;;6.45;;
18520;SDS011;9390;51.244;6.982;2023-07-02T13:08:36;16.00;;;6.50;;
18520;SDS011;9390;51.244;6.982;2023-07-02T13:11:08;17.85;;;6.78;;
18520;SDS011;9390;51.244;6.982;2023-07-02T13:13:39;19.02;;;6.95;;
18520;SDS011;9390;51.244;6.982;2023-07-02T13:16:12;19.50;;;6.78;;
18520;SDS011;9390;51.244;6.982;2023-07-02T13:18:44;18.23;;;6.45;;
18520;SDS011;9390;51.244;6.982;2023-07-02T13:21:15;20.25;;;6.28;;
18520;SDS011;9390;51.244;6.982;2023-07-02T13:23:47;19.13;;;7.32;;
18520;SDS011;9390;51.244;6.982;2023-07-02T13:26:18;20.83;;;7.18;;
18520;SDS011;9390;51.244;6.982;2023-07-02T13:28:49;20.20;;;7.20;;
18520;SDS011;9390;51.244;6.982;2023-07-02T13:31:22;15.45;;;6.07;;
18520;SDS011;9390;51.244;6.982;2023-07-02T13:33:53;19.80;;;7.15;;
18520;SDS011;9390;51.244;6.982;2023-07-02T13:36:25;20.67;;;6.72;;
18520;SDS011;9390;51.244;6.982;2023-07-02T13:38:58;20.40;;;7.68;;
18520;SDS011;9390;51.244;6.982;2023-07-02T13:41:29;16.42;;;7.25;;
18520;SDS011;9390;51.244;6.982;2023-07-02T13:44:01;17.65;;;6.97;;
18520;SDS011;9390;51.244;6.982;2023-07-02T13:46:34;18.60;;;6.60;;
18520;SDS011;9390;51.244;6.982;2023-07-02T13:51:36;22.60;;;6.97;;
18520;SDS011;9390;51.244;6.982;2023-07-02T13:54:11;22.38;;;7.50;;
18520;SDS011;9390;51.244;6.982;2023-07-02T13:56:44;18.80;;;7.05;;
18520;SDS011;9390;51.244;6.982;2023-07-02T13:59:19;18.20;;;6.80;;
18520;SDS011;9390;51.244;6.982;2023-07-02T14:01:50;19.38;;;7.28;;
18520;SDS011;9390;51.244;6.982;2023-07-02T14:04:22;18.67;;;7.28;;
18520;SDS011;9390;51.244;6.982;2023-07-02T14:06:53;22.45;;;7.63;;
18520;SDS011;9390;51.244;6.982;2023-07-02T14:09:25;18.35;;;7.05;;
18520;SDS011;9390;51.244;6.982;2023-07-02T14:11:56;19.33;;;7.38;;
18520;SDS011;9390;51.244;6.982;2023-07-02T14:14:29;20.23;;;7.50;;
18520;SDS011;9390;51.244;6.982;2023-07-02T14:17:00;23.83;;;7.85;;
18520;SDS011;9390;51.244;6.982;2023-07-02T14:19:31;22.08;;;7.47;;
18520;SDS011;9390;51.244;6.982;2023-07-02T14:22:03;21.58;;;7.13;;
18520;SDS011;9390;51.244;6.982;2023-07-02T14:24:34;19.10;;;7.28;;
18520;SDS011;9390;51.244;6.982;2023-07-02T14:27:06;15.55;;;6.50;;
18520;SDS011;9390;51.244;6.982;2023-07-02T14:29:38;20.58;;;8.02;;
18520;SDS011;9390;51.244;6.982;2023-07-02T14:32:10;20.08;;;7.82;;
18520;SDS011;9390;51.244;6.982;2023-07-02T14:34:41;17.33;;;7.03;;
18520;SDS011;9390;51.244;6.982;2023-07-02T14:37:13;19.58;;;7.93;;
18520;SDS011;9390;51.244;6.982;2023-07-02T14:39:44;20.85;;;7.43;;
18520;SDS011;9390;51.244;6.982;2023-07-02T14:42:15;18.02;;;7.55;;
18520;SDS011;9390;51.244;6.982;2023-07-02T14:44:48;19.55;;;7.50;;
18520;SDS011;9390;51.244;6.982;2023-07-02T14:47:19;20.80;;;7.82;;
18520;SDS011;9390;51.244;6.982;2023-07-02T14:49:51;22.00;;;8.35;;
18520;SDS011;9390;51.244;6.982;2023-07-02T14:52:22;18.92;;;7.55;;
18520;SDS011;9390;51.244;6.982;2023-07-02T14:54:54;20.67;;;8.13;;
18520;SDS011;9390;51.244;6.982;2023-07-02T14:57:26;19.47;;;7.27;;
18520;SDS011;9390;51.244;6.982;2023-07-02T14:59:59;21.98;;;7.22;;
18520;SDS011;9390;51.244;6.982;2023-07-02T15:02:30;18.10;;;7.35;;
18520;SDS011;9390;51.244;6.982;2023-07-02T15:05:02;17.63;;;8.02;;
18520;SDS011;9390;51.244;6.982;2023-07-02T15:07:33;21.30;;;8.10;;
18520;SDS011;9390;51.244;6.982;2023-07-02T15:10:13;22.42;;;8.60;;
18520;SDS011;9390;51.244;6.982;2023-07-02T15:15:16;21.50;;;8.55;;
18520;SDS011;9390;51.244;6.982;2023-07-02T15:17:47;20.52;;;7.63;;
18520;SDS011;9390;51.244;6.982;2023-07-02T15:20:19;22.23;;;8.30;;
18520;SDS011;9390;51.244;6.982;2023-07-02T15:22:50;19.30;;;7.30;;